Time;durP1;ratioP1;P1;durP2;ratioP2;P2;SDS_P1;SDS_P2;PMS_P1;PMS_P2;Temp;Humidity;BMP_temperature;BMP_pressure;BME280_temperature;BME280_humidity;BME280_pressure;Samples;Min_cycle;Max_cycle;Signal;HPM_P1;HPM_P2
2023/08/29 00:00:32;;;;;;;8.45;2.95;;;13.10;99.90;;;12.48;100.00;101251.97;4145951;28;20033;-74
2023/08/29 00:02:40;;;;;;;5.97;2.03;;;13.10;99.90;;;12.41;100.00;101254.38;4152356;28;20030;-75
2023/08/29 00:04:41;;;;;;;8.90;2.42;;;13.10;99.90;;;12.41;100.00;101256.19;4151498;28;20076;-75
2023/08/29 00:06:42;;;;;;;6.55;2.65;;;13.10;99.90;;;12.44;100.00;101258.53;4152243;28;20030;-75
2023/08/29 00:08:43;;;;;;;9.15;3.38;;;13.10;99.90;;;12.43;100.00;101259.50;4152257;28;20028;-74
2023/08/29 00:10:44;;;;;;;6.03;2.50;;;13.10;99.90;;;12.45;100.00;101249.63;4152202;28;20053;-75
2023/08/29 00:12:45;;;;;;;8.32;2.70;;;13.10;99.90;;;12.49;100.00;101256.25;4152022;28;20026;-75
2023/08/29 00:14:45;;;;;;;12.02;2.40;;;13.10;99.90;;;12.49;100.00;101246.50;4149815;28;20018;-74
2023/08/29 00:16:46;;;;;;;7.47;3.25;;;13.10;99.90;;;12.52;100.00;101248.81;4146092;28;20546;-74
2023/08/29 00:18:47;;;;;;;7.80;2.53;;;13.10;99.90;;;12.52;100.00;101234.75;4153207;28;20493;-74
2023/08/29 00:20:49;;;;;;;12.57;2.45;;;13.20;99.90;;;12.56;100.00;101244.88;4151706;28;20107;-74
2023/08/29 00:22:50;;;;;;;8.75;2.78;;;13.20;99.90;;;12.57;100.00;101248.38;4153180;28;20033;-74
2023/08/29 00:24:52;;;;;;;8.52;3.30;;;13.20;99.90;;;12.56;100.00;101238.75;4153070;28;20025;-74
2023/08/29 00:26:53;;;;;;;6.40;3.30;;;13.20;99.90;;;12.60;100.00;101237.47;4151952;28;20456;-74
2023/08/29 00:28:54;;;;;;;10.32;2.42;;;13.20;99.90;;;12.68;100.00;101242.81;4151915;28;20045;-74
2023/08/29 00:30:55;;;;;;;7.88;2.75;;;13.20;99.90;;;12.63;100.00;101237.16;4151907;28;20030;-74
2023/08/29 00:32:56;;;;;;;6.00;2.72;;;13.30;99.90;;;12.63;100.00;101226.56;4153144;28;20425;-74
2023/08/29 00:34:57;;;;;;;8.95;2.08;;;13.20;99.90;;;12.62;100.00;101224.91;4147262;28;20038;-74
2023/08/29 00:36:57;;;;;;;9.43;2.78;;;13.20;99.90;;;12.60;100.00;101230.34;4151649;28;20399;-75
2023/08/29 00:38:58;;;;;;;8.82;2.50;;;13.20;99.90;;;12.57;100.00;101232.50;4152995;28;20022;-74
2023/08/29 00:40:59;;;;;;;7.07;2.70;;;13.20;99.90;;;12.56;100.00;101230.81;4153042;28;20022;-74
2023/08/29 00:43:01;;;;;;;7.15;2.85;;;13.20;99.90;;;12.49;100.00;101221.84;4152803;28;20029;-74
2023/08/29 00:45:02;;;;;;;5.88;2.28;;;13.20;99.90;;;12.51;100.00;101228.66;4151448;28;20420;-74
2023/08/29 00:47:04;;;;;;;7.90;2.78;;;13.20;99.90;;;12.47;100.00;101229.13;4153061;28;20026;-74
2023/08/29 00:49:05;;;;;;;6.43;2.30;;;13.10;99.90;;;12.47;100.00;101231.75;4151733;28;20456;-74
2023/08/29 00:51:06;;;;;;;8.75;2.75;;;13.10;99.90;;;12.44;100.00;101224.97;4149795;28;20021;-74
2023/08/29 00:53:08;;;;;;;11.10;3.60;;;13.10;99.90;;;12.46;100.00;101235.38;4152652;28;20022;-74
2023/08/29 00:55:09;;;;;;;10.88;3.40;;;13.10;99.90;;;12.43;100.00;101225.09;4151495;28;20033;-74
2023/08/29 00:57:10;;;;;;;10.00;2.83;;;13.10;99.90;;;12.41;100.00;101214.69;4167915;28;20022;-74
2023/08/29 00:59:12;;;;;;;9.95;3.63;;;13.10;99.90;;;12.48;100.00;101228.13;4152693;28;20030;-74
2023/08/29 01:01:14;;;;;;;5.28;2.22;;;13.10;99.90;;;12.44;100.00;101224.97;4151353;28;20524;-74
2023/08/29 01:03:15;;;;;;;10.40;2.88;;;13.10;99.90;;;12.43;100.00;101215.38;4151354;28;20022;-74
2023/08/29 01:05:17;;;;;;;9.90;2.97;;;13.10;99.90;;;12.42;100.00;101210.25;4151144;28;20036;-74
2023/08/29 01:07:17;;;;;;;11.45;3.28;;;13.10;99.90;;;12.43;100.00;101211.88;4152559;28;20493;-74
2023/08/29 01:09:18;;;;;;;7.07;3.03;;;13.10;99.90;;;12.41;100.00;101208.56;4152287;28;20018;-74
2023/08/29 01:11:25;;;;;;;5.93;2.55;;;13.10;99.90;;;12.40;100.00;101202.44;4134173;28;20065;-74
2023/08/29 01:13:47;;;;;;;6.57;2.80;;;13.00;99.90;;;12.38;100.00;101200.94;4152420;28;20052;-74
2023/08/29 01:15:52;;;;;;;7.20;2.78;;;13.00;99.90;;;12.35;100.00;101195.97;4141287;28;20526;-74
2023/08/29 01:18:00;;;;;;;9.10;2.88;;;13.00;99.90;;;12.35;100.00;101204.75;4151336;28;20417;-74
2023/08/29 01:20:02;;;;;;;7.80;2.67;;;13.00;99.90;;;12.35;100.00;101203.91;4167150;28;20025;-74
2023/08/29 01:22:29;;;;;;;7.88;2.58;;;13.00;99.90;;;12.35;100.00;101198.63;4134893;28;20506;-74
2023/08/29 01:24:46;;;;;;;6.78;2.83;;;13.00;99.90;;;12.37;100.00;101205.41;4152078;28;20026;-74
2023/08/29 01:26:48;;;;;;;5.82;2.65;;;13.00;99.90;;;12.40;100.00;101201.59;4146463;28;20037;-74
2023/08/29 01:28:49;;;;;;;7.78;2.65;;;13.10;99.90;;;12.44;100.00;101217.03;4151098;28;20022;-74
2023/08/29 01:30:51;;;;;;;9.35;3.10;;;13.00;99.90;;;12.48;100.00;101214.91;4151279;28;20034;-74
2023/08/29 01:32:52;;;;;;;6.25;2.35;;;13.10;99.90;;;12.56;100.00;101209.66;4151256;28;20537;-74
2023/08/29 01:34:53;;;;;;;8.48;2.90;;;13.10;99.90;;;12.62;100.00;101203.72;4149382;28;20058;-74
2023/08/29 01:36:54;;;;;;;5.20;2.20;;;13.20;99.90;;;12.68;100.00;101208.41;4133012;28;20414;-74
2023/08/29 01:38:55;;;;;;;9.10;2.90;;;13.30;99.90;;;12.72;100.00;101199.97;4134762;28;20030;-74
2023/08/29 01:40:56;;;;;;;6.78;2.70;;;13.30;99.90;;;12.73;100.00;101198.16;4151005;28;20053;-74
2023/08/29 01:42:57;;;;;;;8.02;2.25;;;13.40;99.90;;;12.76;100.00;101208.41;4145778;28;20105;-74
2023/08/29 01:44:58;;;;;;;5.05;2.40;;;13.40;99.90;;;12.81;100.00;101208.78;4148324;28;20375;-74
2023/08/29 01:46:58;;;;;;;7.47;2.60;;;13.40;99.90;;;12.83;100.00;101214.75;4152135;28;20044;-74
2023/08/29 01:49:02;;;;;;;5.43;2.25;;;13.40;99.90;;;12.85;100.00;101210.13;4146077;28;20409;-74
2023/08/29 01:51:03;;;;;;;6.72;2.40;;;13.50;99.90;;;12.85;100.00;101199.53;4150864;28;20085;-74
2023/08/29 01:53:04;;;;;;;7.90;2.92;;;13.50;99.90;;;12.91;100.00;101209.47;4150892;28;20038;-74
2023/08/29 01:55:06;;;;;;;7.07;2.45;;;13.50;99.90;;;12.92;100.00;101203.22;4151784;28;20018;-74
2023/08/29 01:57:10;;;;;;;8.27;3.22;;;13.50;99.90;;;12.93;100.00;101204.84;4152191;28;20030;-74
2023/08/29 01:59:11;;;;;;;7.82;2.47;;;13.60;99.90;;;12.93;100.00;101199.56;4150975;28;20026;-74
2023/08/29 02:01:12;;;;;;;6.10;2.67;;;13.60;99.90;;;12.93;100.00;101196.91;4134636;28;20081;-74
2023/08/29 02:03:13;;;;;;;6.72;2.08;;;13.50;99.90;;;12.84;100.00;101187.28;4150946;28;20029;-74
2023/08/29 02:05:14;;;;;;;6.63;2.38;;;13.50;99.90;;;12.84;100.00;101197.88;4151840;28;20034;-74
2023/08/29 02:07:15;;;;;;;11.30;2.53;;;13.50;99.90;;;12.83;100.00;101185.63;4152152;28;20025;-74
2023/08/29 02:09:16;;;;;;;11.60;4.15;;;13.50;99.90;;;12.84;100.00;101189.94;4134303;28;20034;-74
2023/08/29 02:11:17;;;;;;;6.93;3.38;;;13.50;99.90;;;12.84;100.00;101192.59;4150888;28;20517;-74
2023/08/29 02:13:17;;;;;;;7.47;2.83;;;13.50;99.90;;;12.81;100.00;101192.91;4142923;28;20033;-74
2023/08/29 02:15:18;;;;;;;7.72;2.53;;;13.50;99.90;;;12.82;100.00;101197.19;4144719;28;20022;-74
2023/08/29 02:17:19;;;;;;;4.85;1.90;;;13.50;99.90;;;12.91;100.00;101208.66;4147964;28;20429;-74
2023/08/29 02:19:20;;;;;;;6.05;2.67;;;13.50;99.90;;;12.96;100.00;101209.03;4147218;28;20027;-74
2023/08/29 02:21:21;;;;;;;8.18;2.28;;;13.60;99.90;;;12.99;100.00;101209.50;4142492;28;20034;-74
2023/08/29 02:23:22;;;;;;;9.45;3.40;;;13.60;99.90;;;13.05;100.00;101208.88;4152675;28;20061;-74
2023/08/29 02:25:23;;;;;;;3.60;1.98;;;13.60;99.90;;;13.07;100.00;101198.97;4148380;28;20034;-74
2023/08/29 02:27:23;;;;;;;5.38;2.38;;;13.70;99.90;;;13.11;100.00;101199.50;4141948;28;20482;-74
2023/08/29 02:29:24;;;;;;;6.90;3.35;;;13.70;99.90;;;13.11;100.00;101210.09;4155003;28;20032;-74
2023/08/29 02:31:25;;;;;;;5.90;2.35;;;13.70;99.90;;;13.10;100.00;101203.97;4153582;28;20040;-74
2023/08/29 02:33:26;;;;;;;5.07;2.28;;;13.70;99.90;;;13.13;100.00;101202.81;4154885;28;20029;-74
2023/08/29 02:35:27;;;;;;;4.93;2.15;;;13.70;99.90;;;13.15;100.00;101216.72;4152507;28;20045;-74
2023/08/29 02:37:28;;;;;;;7.55;3.10;;;13.80;99.90;;;13.14;100.00;101215.88;4153540;28;20054;-74
2023/08/29 02:39:29;;;;;;;9.18;3.15;;;13.70;99.90;;;13.17;100.00;101215.56;4154849;28;20060;-74
2023/08/29 02:41:30;;;;;;;7.45;2.38;;;13.80;99.90;;;13.20;100.00;101219.72;4153630;28;20084;-74
2023/08/29 02:43:31;;;;;;;6.40;2.22;;;13.80;99.90;;;13.20;100.00;101209.13;4153512;28;20089;-74
2023/08/29 02:45:32;;;;;;;8.43;2.55;;;13.80;99.90;;;13.18;100.00;101206.63;4152849;28;20033;-74
2023/08/29 02:47:33;;;;;;;4.38;1.90;;;13.80;99.90;;;13.19;100.00;101203.00;4154721;28;20033;-74
2023/08/29 02:49:34;;;;;;;4.90;2.00;;;13.90;99.90;;;13.27;100.00;101205.66;4152811;28;20037;-74
2023/08/29 02:51:34;;;;;;;6.72;2.30;;;13.90;99.90;;;13.24;100.00;101200.69;4154517;28;20034;-74
2023/08/29 02:53:35;;;;;;;4.80;2.10;;;13.90;99.90;;;13.32;100.00;101201.72;4153480;28;20025;-74
2023/08/29 02:55:36;;;;;;;9.27;2.90;;;13.90;99.90;;;13.29;100.00;101197.53;4154558;28;20029;-74
2023/08/29 02:57:38;;;;;;;5.35;2.63;;;13.90;99.90;;;13.25;100.00;101193.56;4154513;28;20030;-74
2023/08/29 02:59:40;;;;;;;5.72;2.45;;;13.90;99.90;;;13.18;100.00;101180.13;4154348;28;20033;-74
2023/08/29 03:01:40;;;;;;;6.00;2.20;;;13.90;99.90;;;13.16;100.00;101186.59;4154523;28;20105;-74
2023/08/29 03:03:41;;;;;;;3.45;2.17;;;13.90;99.90;;;13.15;100.00;101191.06;4153130;28;20053;-74
2023/08/29 03:05:42;;;;;;;6.93;2.47;;;13.80;99.90;;;13.12;100.00;101191.38;4154099;28;20034;-74
2023/08/29 03:07:44;;;;;;;5.53;2.25;;;13.80;99.90;;;13.06;100.00;101185.84;4154410;28;20053;-74
2023/08/29 03:09:45;;;;;;;6.90;2.45;;;13.70;99.90;;;13.08;100.00;101189.22;4153061;28;20120;-74
2023/08/29 03:11:45;;;;;;;4.68;2.13;;;13.70;99.90;;;13.07;100.00;101195.47;4154344;28;20026;-74
2023/08/29 03:13:46;;;;;;;4.55;1.80;;;13.70;99.90;;;13.06;100.00;101197.28;4154216;28;20018;-74
2023/08/29 03:15:48;;;;;;;4.18;2.00;;;13.70;99.90;;;13.06;100.00;101186.69;4152940;28;20030;-74
2023/08/29 03:17:50;;;;;;;3.72;1.83;;;13.70;99.90;;;13.05;100.00;101182.38;4154294;28;20064;-74
2023/08/29 03:19:51;;;;;;;6.90;2.35;;;13.70;99.90;;;13.06;100.00;101178.75;4152878;28;20062;-74
2023/08/29 03:21:51;;;;;;;4.43;1.92;;;13.70;99.90;;;13.09;100.00;101183.75;4152825;28;20034;-74
2023/08/29 03:23:52;;;;;;;5.10;1.80;;;13.70;99.90;;;13.10;100.00;101182.78;4154005;28;20037;-74
2023/08/29 03:26:04;;;;;;;4.90;1.52;;;13.70;99.90;;;13.09;100.00;101172.31;4154078;28;20033;-74
2023/08/29 03:28:05;;;;;;;5.45;2.28;;;13.80;99.90;;;13.09;100.00;101183.75;4152793;28;20084;-74
2023/08/29 03:30:07;;;;;;;5.97;2.15;;;13.70;99.90;;;13.09;100.00;101183.75;4152860;28;20026;-75
2023/08/29 03:32:08;;;;;;;7.03;2.90;;;13.70;99.90;;;13.10;100.00;101174.81;4153874;28;20080;-74
2023/08/29 03:34:09;;;;;;;10.73;3.55;;;13.70;99.90;;;13.12;100.00;101178.13;4152260;28;20022;-74
2023/08/29 03:36:10;;;;;;;4.78;1.85;;;13.80;99.90;;;13.16;100.00;101182.13;4152056;28;20029;-74
2023/08/29 03:38:11;;;;;;;6.97;2.90;;;13.80;99.90;;;13.11;100.00;101179.13;4153847;28;20054;-74
2023/08/29 03:40:13;;;;;;;4.50;1.90;;;13.80;99.90;;;13.12;100.00;101169.34;4136254;28;20038;-74
2023/08/29 03:42:14;;;;;;;5.95;2.28;;;13.80;99.90;;;13.15;100.00;101183.09;4136288;28;20026;-74
2023/08/29 03:44:14;;;;;;;6.25;2.45;;;13.80;99.90;;;13.12;100.00;101170.19;4153907;28;20038;-74
2023/08/29 03:46:15;;;;;;;8.13;2.58;;;13.80;99.90;;;13.13;100.00;101171.84;4152466;28;20036;-74
2023/08/29 03:48:16;;;;;;;3.90;1.90;;;13.80;99.90;;;13.13;100.00;101166.56;4151760;28;20513;-74
2023/08/29 03:50:17;;;;;;;5.95;2.00;;;13.80;99.90;;;13.09;100.00;101169.69;4140601;28;20018;-74
2023/08/29 03:52:26;;;;;;;6.45;2.33;;;13.80;99.90;;;13.12;100.00;101180.78;4153663;28;20032;-74
2023/08/29 03:54:27;;;;;;;4.88;2.20;;;13.80;99.90;;;13.09;100.00;101183.75;4153587;28;20490;-74
2023/08/29 03:56:28;;;;;;;6.53;2.22;;;13.80;99.90;;;13.09;100.00;101189.06;4153421;28;20041;-74
2023/08/29 03:58:30;;;;;;;3.55;2.00;;;13.70;99.90;;;13.12;100.00;101179.94;4152486;28;20171;-74
2023/08/29 04:00:31;;;;;;;3.13;1.80;;;13.70;99.90;;;13.11;100.00;101183.59;4153387;28;20025;-74
2023/08/29 04:02:32;;;;;;;3.13;1.92;;;13.70;99.90;;;13.12;100.00;101179.94;4152451;28;20138;-74
2023/08/29 04:04:33;;;;;;;6.95;2.28;;;13.80;99.90;;;13.14;100.00;101178.00;4135660;28;20033;-74
2023/08/29 04:06:35;;;;;;;7.28;2.53;;;13.80;99.90;;;13.12;100.00;101175.47;4152478;28;20030;-74
2023/08/29 04:08:36;;;;;;;8.32;2.92;;;13.70;99.90;;;13.14;100.00;101178.78;4143903;28;20034;-74
2023/08/29 04:10:41;;;;;;;5.25;2.20;;;13.70;99.90;;;13.15;100.00;101177.81;4135665;28;20034;-74
2023/08/29 04:12:42;;;;;;;5.40;1.70;;;13.70;99.90;;;13.14;100.00;101173.50;4167333;28;20057;-74
2023/08/29 04:14:43;;;;;;;5.82;2.33;;;13.80;99.90;;;13.13;100.00;101166.56;4125059;28;20018;-74
2023/08/29 04:16:44;;;;;;;5.20;2.38;;;13.80;99.90;;;13.11;100.00;101163.22;4152156;28;20045;-74
2023/08/29 04:18:45;;;;;;;6.65;2.80;;;13.80;99.90;;;13.11;100.00;101168.53;4152040;28;20036;-74
2023/08/29 04:20:46;;;;;;;7.00;2.53;;;13.80;99.90;;;13.08;100.00;101157.44;4152890;28;20034;-74
2023/08/29 04:22:47;;;;;;;7.05;2.55;;;13.80;99.90;;;13.10;100.00;101163.41;4148693;28;20022;-74
2023/08/29 04:24:48;;;;;;;8.00;2.33;;;13.80;99.90;;;13.09;100.00;101165.22;4145319;28;20111;-74
2023/08/29 04:26:49;;;;;;;7.13;2.80;;;13.80;99.90;;;13.07;100.00;101156.59;4153040;28;20038;-74
2023/08/29 04:28:50;;;;;;;9.02;2.83;;;13.70;99.90;;;13.07;100.00;101161.03;4151806;28;20478;-74
2023/08/29 04:30:51;;;;;;;6.32;2.70;;;13.80;99.90;;;13.05;100.00;101158.53;4153125;28;20441;-74
2023/08/29 04:32:52;;;;;;;4.45;1.85;;;13.70;99.90;;;13.10;100.00;101161.59;4151905;28;20033;-74
2023/08/29 04:34:52;;;;;;;4.25;2.15;;;13.70;99.90;;;13.12;100.00;101153.47;4151637;28;20487;-74
2023/08/29 04:36:55;;;;;;;8.65;2.65;;;13.80;99.90;;;13.13;100.00;101155.97;4151285;28;20034;-74
2023/08/29 04:38:56;;;;;;;3.47;2.13;;;13.70;99.90;;;13.11;100.00;101152.63;4152972;28;20049;-74
2023/08/29 04:40:56;;;;;;;5.47;2.00;;;13.80;99.90;;;13.15;100.00;101153.97;4151795;28;20037;-74
2023/08/29 04:42:57;;;;;;;6.70;2.10;;;13.80;99.90;;;13.18;100.00;101152.81;4152833;28;20030;-74
2023/08/29 04:45:02;;;;;;;5.72;2.47;;;13.80;99.90;;;13.16;100.00;101149.50;4152706;28;20405;-74
2023/08/29 04:47:03;;;;;;;5.60;1.90;;;13.80;99.90;;;13.16;100.00;101145.03;4152225;28;20568;-74
2023/08/29 04:49:04;;;;;;;7.47;2.85;;;13.80;99.90;;;13.18;100.00;101156.28;4151542;28;20113;-74
2023/08/29 04:51:05;;;;;;;7.72;3.42;;;13.80;99.90;;;13.13;100.00;101155.97;4152748;28;20397;-74
2023/08/29 04:53:06;;;;;;;7.70;3.03;;;13.80;99.90;;;13.11;100.00;101147.31;4152549;28;20085;-74
2023/08/29 04:55:07;;;;;;;4.40;1.90;;;13.80;99.90;;;13.14;100.00;101152.31;4151506;28;20110;-74
2023/08/29 04:57:08;;;;;;;3.25;1.73;;;13.80;99.90;;;13.16;100.00;101149.50;4151607;28;20030;-74
2023/08/29 04:59:09;;;;;;;3.55;2.08;;;13.80;99.90;;;13.16;100.00;101152.16;4151538;28;20029;-74
2023/08/29 05:01:10;;;;;;;3.60;1.83;;;13.80;99.90;;;13.12;100.00;101137.56;4152604;28;20034;-74
2023/08/29 05:03:11;;;;;;;6.60;2.45;;;13.80;99.90;;;13.14;100.00;101147.00;4151516;28;20038;-74
2023/08/29 05:05:11;;;;;;;6.57;2.45;;;13.80;99.90;;;13.14;100.00;101140.91;4152383;28;20029;-74
2023/08/29 05:07:13;;;;;;;3.60;2.28;;;13.80;99.90;;;13.11;100.00;101147.31;4152691;28;20029;-74
2023/08/29 05:09:14;;;;;;;6.10;2.65;;;13.80;99.90;;;13.15;100.00;101151.31;4152374;28;20116;-74
2023/08/29 05:11:15;;;;;;;9.95;3.00;;;13.80;99.90;;;13.12;100.00;101154.28;4151249;28;20513;-74
2023/08/29 05:13:16;;;;;;;5.30;2.47;;;13.80;99.90;;;13.11;100.00;101143.88;4151416;28;20036;-74
2023/08/29 05:15:17;;;;;;;6.13;2.50;;;13.80;99.90;;;13.15;100.00;101159.28;4151070;28;20026;-74
2023/08/29 05:17:18;;;;;;;4.70;2.08;;;13.80;99.90;;;13.15;100.00;101153.97;4152295;28;20077;-74
2023/08/29 05:19:19;;;;;;;4.38;2.80;;;13.80;99.90;;;13.14;100.00;101156.81;4149516;28;20014;-74
2023/08/29 05:21:20;;;;;;;4.38;2.28;;;13.80;99.90;;;13.13;100.00;101148.03;4142716;28;20033;-74
2023/08/29 05:23:21;;;;;;;4.38;2.17;;;13.80;99.90;;;13.15;100.00;101156.63;4151294;28;20057;-74
2023/08/29 05:25:23;;;;;;;2.75;1.95;;;13.80;99.90;;;13.17;100.00;101151.97;4151368;28;20121;-74
2023/08/29 05:27:23;;;;;;;6.40;2.72;;;13.80;99.90;;;13.20;100.00;101148.19;4152383;28;20026;-74
2023/08/29 05:29:24;;;;;;;5.28;1.90;;;13.90;99.90;;;13.20;100.00;101146.34;4152397;28;20456;-74
2023/08/29 05:31:25;;;;;;;3.97;2.13;;;13.90;99.90;;;13.24;100.00;101153.00;4143082;28;20023;-74
2023/08/29 05:33:26;;;;;;;4.28;1.95;;;13.90;99.90;;;13.25;100.00;101151.19;4149225;28;20033;-74
2023/08/29 05:35:27;;;;;;;5.55;2.35;;;13.90;99.90;;;13.25;100.00;101148.53;4149455;28;20104;-74
2023/08/29 05:37:28;;;;;;;5.60;2.80;;;13.90;99.90;;;13.25;100.00;101149.38;4152002;28;20046;-74
2023/08/29 05:39:29;;;;;;;7.18;2.65;;;13.90;99.90;;;13.18;100.00;101143.06;4152280;28;20021;-74
2023/08/29 05:41:31;;;;;;;6.13;2.83;;;13.90;99.90;;;13.30;100.00;101162.09;4152430;28;20064;-74
2023/08/29 05:43:32;;;;;;;5.60;2.33;;;13.90;99.90;;;13.25;100.00;101143.22;4151990;28;20036;-74
2023/08/29 05:45:32;;;;;;;7.05;2.55;;;13.90;99.90;;;13.34;100.00;101159.97;4151010;28;20038;-74
2023/08/29 05:47:33;;;;;;;5.10;2.40;;;13.90;99.90;;;13.35;100.00;101165.09;4151285;28;20026;-74
2023/08/29 05:49:34;;;;;;;3.53;2.17;;;14.00;99.90;;;13.34;100.00;101163.44;4151996;28;20026;-74
2023/08/29 05:51:35;;;;;;;5.53;2.58;;;14.00;99.90;;;13.34;100.00;101159.97;4152192;28;20021;-74
2023/08/29 05:53:36;;;;;;;5.57;2.25;;;14.00;99.90;;;13.35;100.00;101158.97;4152376;28;20033;-74
2023/08/29 05:55:37;;;;;;;4.22;2.58;;;14.00;99.90;;;13.32;100.00;101155.66;4149802;28;20030;-74
2023/08/29 05:57:38;;;;;;;6.57;2.45;;;14.00;99.90;;;13.42;100.00;101165.28;4144443;28;20482;-74
2023/08/29 05:59:39;;;;;;;6.95;2.58;;;14.00;99.90;;;13.45;100.00;101157.00;4154185;28;20030;-74
2023/08/29 06:01:40;;;;;;;5.28;2.47;;;14.10;99.90;;;13.47;100.00;101171.72;4155442;28;20417;-74
2023/08/29 06:03:41;;;;;;;4.18;2.30;;;14.10;99.90;;;13.51;100.00;101170.41;4155356;28;20493;-74
2023/08/29 06:05:42;;;;;;;4.95;2.65;;;14.10;99.90;;;13.49;100.00;101166.28;4153749;28;20124;-74
2023/08/29 06:07:43;;;;;;;7.00;2.45;;;14.20;99.90;;;13.52;100.00;101168.59;4153986;28;20026;-74
2023/08/29 06:09:44;;;;;;;3.85;2.20;;;14.20;99.90;;;13.61;100.00;101178.22;4137277;28;20069;-74
2023/08/29 06:11:45;;;;;;;3.95;2.00;;;14.20;99.90;;;13.66;100.00;101174.06;4154068;28;20026;-74
2023/08/29 06:13:46;;;;;;;3.92;2.10;;;14.30;99.90;;;13.69;100.00;101178.22;4153901;28;20030;-74
2023/08/29 06:15:47;;;;;;;4.53;2.55;;;14.30;99.90;;;13.71;100.00;101181.50;4137090;28;20053;-74
2023/08/29 06:17:50;;;;;;;5.10;2.20;;;14.30;99.90;;;13.80;100.00;101177.88;4154033;28;20034;-74
2023/08/29 06:19:51;;;;;;;5.68;2.72;;;14.40;99.90;;;13.80;100.00;101177.88;4153781;28;20060;-74
2023/08/29 06:21:51;;;;;;;4.97;2.25;;;14.40;99.90;;;13.89;100.00;101176.88;4153891;28;20065;-74
2023/08/29 06:23:52;;;;;;;5.22;2.30;;;14.50;99.90;;;13.95;100.00;101176.22;4170027;28;20025;-74
2023/08/29 06:25:54;;;;;;;5.68;2.50;;;14.50;99.90;;;13.96;100.00;101169.91;4142488;28;20065;-74
2023/08/29 06:27:55;;;;;;;5.72;2.30;;;14.60;99.90;;;14.01;100.00;101172.09;4145734;28;20132;-74
2023/08/29 06:29:56;;;;;;;5.63;2.90;;;14.60;99.90;;;14.03;100.00;101173.56;4149758;28;20029;-75
2023/08/29 06:31:57;;;;;;;6.18;2.42;;;14.70;99.90;;;14.12;100.00;101182.34;4153606;28;20017;-74
2023/08/29 06:33:59;;;;;;;5.93;2.40;;;14.70;99.90;;;14.13;100.00;101182.16;4154495;28;20032;-74
2023/08/29 06:36:00;;;;;;;4.20;2.92;;;14.70;99.90;;;14.14;100.00;101178.53;4146743;28;20026;-74
2023/08/29 06:38:01;;;;;;;3.88;2.53;;;14.80;99.90;;;14.21;100.00;101182.16;4153636;28;20116;-75
2023/08/29 06:40:05;;;;;;;3.47;2.05;;;14.80;99.90;;;14.21;100.00;101173.38;4153555;28;20561;-74
2023/08/29 06:42:06;;;;;;;3.45;2.30;;;14.80;99.90;;;14.26;100.00;101176.34;4140520;28;20037;-71
2023/08/29 06:44:07;;;;;;;4.10;2.05;;;14.80;99.90;;;14.19;100.00;101173.53;4144309;28;20030;-71
2023/08/29 06:46:09;;;;;;;3.75;2.15;;;14.80;99.90;;;14.16;100.00;101178.34;4147546;28;20053;-72
2023/08/29 06:48:10;;;;;;;6.40;2.83;;;14.80;99.90;;;14.24;100.00;101188.97;4152842;28;20025;-73
2023/08/29 06:50:12;;;;;;;3.97;2.13;;;14.80;99.90;;;14.24;100.00;101173.03;4152827;28;20097;-73
2023/08/29 06:52:12;;;;;;;3.50;2.03;;;14.80;99.90;;;14.33;100.00;101186.16;4152913;28;20026;-72
2023/08/29 06:54:13;;;;;;;5.15;2.20;;;14.90;99.90;;;14.38;100.00;101181.16;4152016;28;20033;-72
2023/08/29 06:56:14;;;;;;;4.97;2.10;;;14.90;99.90;;;14.42;100.00;101186.13;4150393;28;20460;-74
2023/08/29 06:58:15;;;;;;;3.83;2.30;;;15.00;99.90;;;14.33;100.00;101177.34;4154013;28;20030;-74
2023/08/29 07:00:16;;;;;;;4.10;2.20;;;15.00;99.90;;;14.42;100.00;101172.84;4153093;28;20030;-74
2023/08/29 07:02:17;;;;;;;6.03;2.42;;;15.00;99.90;;;14.52;100.00;101181.44;4152396;28;20064;-74
2023/08/29 07:04:18;;;;;;;5.90;2.65;;;15.00;99.90;;;14.46;100.00;101172.31;4151417;28;20022;-74
2023/08/29 07:06:19;;;;;;;4.70;1.90;;;15.10;99.90;;;14.55;100.00;101178.44;4152644;28;20041;-74
2023/08/29 07:08:20;;;;;;;4.00;2.00;;;15.10;99.90;;;14.62;100.00;101176.75;4154184;28;20437;-73
2023/08/29 07:10:21;;;;;;;4.07;2.00;;;15.10;99.90;;;14.70;100.00;101174.06;4153538;28;20033;-73
2023/08/29 07:12:21;;;;;;;3.33;2.38;;;15.20;99.90;;;14.72;100.00;101177.41;4153032;28;20033;-73
2023/08/29 07:14:23;;;;;;;6.65;2.38;;;15.30;99.90;;;14.72;100.00;101169.44;4153067;28;20021;-73
2023/08/29 07:16:23;;;;;;;5.30;2.20;;;15.30;99.90;;;14.80;100.00;101164.09;4134702;28;20031;-73
2023/08/29 07:18:24;;;;;;;3.95;2.30;;;15.40;99.90;;;14.84;100.00;101168.06;4154238;28;20409;-73
2023/08/29 07:20:25;;;;;;;3.42;2.30;;;15.40;99.90;;;14.90;100.00;101164.72;4153970;28;20037;-73
2023/08/29 07:22:26;;;;;;;5.47;2.72;;;15.50;99.90;;;14.98;100.00;101159.34;4148410;28;20508;-73
2023/08/29 07:24:27;;;;;;;6.72;3.00;;;15.60;99.90;;;14.95;100.00;101159.69;4144367;28;20052;-73
2023/08/29 07:26:28;;;;;;;4.93;2.33;;;15.60;99.90;;;15.06;100.00;101166.44;4150252;28;20037;-73
2023/08/29 07:28:28;;;;;;;6.60;2.42;;;15.60;99.90;;;15.12;100.00;101166.56;4149988;28;20026;-73
2023/08/29 07:30:29;;;;;;;6.63;2.30;;;15.70;99.90;;;15.08;100.00;101165.28;4136397;28;20464;-73
2023/08/29 07:32:30;;;;;;;4.95;1.98;;;15.70;99.90;;;15.04;100.00;101163.13;4154070;28;20026;-73
2023/08/29 07:34:31;;;;;;;4.63;2.50;;;15.70;99.90;;;15.10;100.00;101171.22;4153771;28;20092;-73
2023/08/29 07:36:32;;;;;;;3.05;1.85;;;15.70;99.90;;;15.23;100.00;101165.34;4149935;28;20022;-72
2023/08/29 07:38:33;;;;;;;3.63;2.03;;;15.80;99.90;;;15.25;100.00;101177.47;4132616;28;20053;-74
2023/08/29 07:40:34;;;;;;;7.68;2.13;;;15.80;99.90;;;15.29;100.00;101176.09;4153473;28;20042;-72
2023/08/29 07:42:35;;;;;;;4.28;2.22;;;15.80;99.90;;;15.41;100.00;101174.69;4151702;28;20026;-73
2023/08/29 07:44:36;;;;;;;4.95;2.17;;;15.90;99.90;;;15.52;100.00;101168.16;4146169;28;20022;-72
2023/08/29 07:46:36;;;;;;;4.18;2.15;;;16.00;99.90;;;15.59;100.00;101155.00;4149812;28;20022;-73
2023/08/29 07:48:37;;;;;;;4.72;1.90;;;16.10;99.90;;;15.75;100.00;101181.44;4151792;28;20555;-72
2023/08/29 07:50:38;;;;;;;3.22;1.95;;;16.20;99.90;;;15.78;100.00;101173.94;4153206;28;20025;-72
2023/08/29 07:52:39;;;;;;;4.82;2.00;;;16.40;99.90;;;15.78;100.00;101165.13;4135212;28;20022;-73
2023/08/29 07:54:41;;;;;;;5.38;2.58;;;16.40;99.90;;;15.92;100.00;101181.13;4147647;28;20018;-72
2023/08/29 07:56:42;;;;;;;5.68;2.00;;;16.50;99.90;;;15.98;100.00;101179.56;4151945;28;20030;-74
2023/08/29 07:58:43;;;;;;;6.00;2.30;;;16.50;99.90;;;15.93;100.00;101163.31;4152189;28;20026;-74
2023/08/29 08:00:44;;;;;;;4.70;2.10;;;16.60;99.90;;;15.92;100.00;101166.97;4153207;28;20509;-74
2023/08/29 08:02:45;;;;;;;5.55;2.33;;;16.60;99.90;;;16.05;100.00;101175.19;4151481;28;20021;-74
2023/08/29 08:04:46;;;;;;;3.60;1.75;;;16.60;99.90;;;16.02;100.00;101178.22;4149519;28;20029;-72
2023/08/29 08:06:47;;;;;;;6.15;2.10;;;16.60;99.90;;;16.17;100.00;101176.41;4143113;28;20026;-74
2023/08/29 08:08:48;;;;;;;4.75;1.80;;;16.70;99.90;;;16.24;100.00;101171.19;4152916;28;20029;-74
2023/08/29 08:10:48;;;;;;;2.85;1.67;;;16.80;99.90;;;16.28;100.00;101173.28;4152880;28;20029;-74
2023/08/29 08:12:49;;;;;;;3.90;1.55;;;16.90;99.90;;;16.31;100.00;101174.75;4151327;28;20034;-74
2023/08/29 08:14:52;;;;;;;4.55;1.75;;;16.90;99.90;;;16.52;100.00;101174.84;4152923;28;20056;-74
2023/08/29 08:16:53;;;;;;;3.37;1.80;;;17.00;99.90;;;16.63;100.00;101176.28;4151525;28;20037;-72
2023/08/29 08:18:54;;;;;;;4.25;1.67;;;17.20;99.90;;;16.63;100.00;101173.63;4151117;28;20273;-74